Terminal Aerodrome Forecast
Issued by NWS

Home | Current Version | Previous Version | Text Only | Print | Product List | Glossary On
Versions: 1 2 3 4 5 6 7 8 9 10 11 12 13 14 15 16 17 18 19 20 21 22 23 24 25 26
000
FTUS42 KGSP 021742
TAFGMU
TAF
KGMU 021742Z 0218/0318 00000KT P6SM SCT040
      TEMPO 0219/0223 BKN040
     FM022300 04006KT P6SM OVC045
     FM030300 06007KT P6SM OVC016
     FM030700 06007KT 5SM -RA BR OVC011
     FM031100 05007KT 4SM -RA BR OVC007=

USA.gov is the U.S. government's official web portal to all federal, state and local government web resources and services.